createdAt,value
2023-05-18T00:04:27.072Z,4.78
2023-05-18T00:09:32.778Z,5.53
2023-05-18T00:14:40.696Z,5.15
2023-05-18T00:19:47.025Z,4.82
2023-05-18T00:24:52.279Z,6.10
2023-05-18T00:30:00.146Z,4.63
2023-05-18T00:35:05.264Z,5.55
2023-05-18T00:40:12.341Z,4.82
2023-05-18T00:45:20.199Z,4.90
2023-05-18T00:50:26.133Z,5.25
2023-05-18T00:55:31.598Z,4.78
2023-05-18T01:00:40.191Z,5.80
2023-05-18T01:05:45.559Z,5.18
2023-05-18T01:10:57.779Z,4.80
2023-05-18T01:16:06.482Z,4.60
2023-05-18T01:21:21.985Z,4.57
2023-05-18T01:26:33.347Z,4.60
2023-05-18T01:31:39.141Z,5.03
2023-05-18T01:36:44.232Z,4.20
2023-05-18T01:41:56.389Z,4.47
2023-05-18T01:47:10.460Z,4.40
2023-05-18T01:52:20.206Z,4.80
2023-05-18T01:57:31.643Z,4.53
2023-05-18T02:02:37.155Z,4.70
2023-05-18T02:07:44.358Z,5.00
2023-05-18T02:12:53.288Z,4.63
2023-05-18T02:17:58.656Z,4.53
2023-05-18T02:23:03.880Z,4.47
2023-05-18T02:28:11.594Z,4.55
2023-05-18T02:33:18.086Z,4.72
2023-05-18T02:38:23.437Z,4.45
2023-05-18T02:43:31.331Z,5.10
2023-05-18T02:48:36.781Z,5.72
2023-05-18T02:53:44.472Z,5.93
2023-05-18T02:58:58.139Z,5.38
2023-05-18T03:04:03.768Z,5.18
2023-05-18T03:09:09.031Z,5.15
2023-05-18T03:14:16.917Z,5.88
2023-05-18T03:19:22.183Z,5.32
2023-05-18T03:24:30.769Z,5.53
2023-05-18T03:29:38.595Z,4.78
2023-05-18T03:34:45.093Z,5.60
2023-05-18T03:39:50.268Z,4.70
2023-05-18T03:44:58.064Z,4.93
2023-05-18T03:50:03.197Z,5.07
2023-05-18T03:55:09.369Z,4.82
2023-05-18T04:00:18.149Z,4.45
2023-05-18T04:05:23.428Z,4.63
2023-05-18T04:10:28.742Z,5.10
2023-05-18T04:15:36.954Z,4.72
2023-05-18T04:20:42.694Z,5.57
2023-05-18T04:25:47.931Z,4.15
2023-05-18T04:30:55.832Z,5.05
2023-05-18T04:36:05.233Z,5.22
2023-05-18T04:41:10.536Z,6.13
2023-05-18T04:46:18.389Z,5.75
2023-05-18T04:51:24.399Z,5.63
2023-05-18T04:56:29.882Z,5.18
2023-05-18T05:01:37.929Z,4.82
2023-05-18T05:06:43.246Z,5.65
2023-05-18T05:11:48.347Z,5.60
2023-05-18T05:16:56.224Z,5.18
2023-05-18T05:22:01.696Z,5.47
2023-05-18T05:27:06.956Z,5.15
2023-05-18T05:32:15.219Z,5.38
2023-05-18T05:37:20.791Z,6.57
2023-05-18T05:42:26.033Z,4.70
2023-05-18T05:47:33.889Z,5.03
2023-05-18T05:52:42.412Z,4.50
2023-05-18T05:57:47.577Z,4.38
2023-05-18T06:02:55.512Z,5.60
2023-05-18T06:08:03.071Z,4.20
2023-05-18T06:13:08.145Z,4.60
2023-05-18T06:18:16.014Z,4.80
2023-05-18T06:23:23.983Z,4.72
2023-05-18T06:28:29.193Z,4.50
2023-05-18T06:33:38.743Z,4.05
2023-05-18T06:38:43.820Z,3.88
2023-05-18T06:43:49.405Z,4.30
2023-05-18T06:48:57.196Z,3.58
2023-05-18T06:54:02.831Z,3.60
2023-05-18T06:59:10.797Z,3.13
2023-05-18T07:04:19.642Z,4.18
2023-05-18T07:09:24.855Z,3.80
2023-05-18T07:14:30.055Z,3.55
2023-05-18T07:19:38.469Z,3.78
2023-05-18T07:24:43.592Z,3.35
2023-05-18T07:29:48.796Z,3.03
2023-05-18T07:34:56.682Z,3.10
2023-05-18T07:40:01.950Z,2.38
2023-05-18T07:45:07.846Z,2.53
2023-05-18T07:50:16.189Z,2.80
2023-05-18T07:55:21.490Z,2.35
2023-05-18T08:00:26.868Z,3.10
2023-05-18T08:05:34.681Z,2.60
2023-05-18T08:10:39.883Z,3.00
2023-05-18T08:15:46.323Z,3.30
2023-05-18T08:20:56.931Z,2.97
2023-05-18T08:26:04.094Z,3.05
2023-05-18T08:31:09.526Z,2.97
2023-05-18T08:36:17.531Z,2.47
2023-05-18T08:41:24.438Z,2.45
2023-05-18T08:46:33.592Z,2.85
2023-05-18T08:51:41.385Z,2.45
2023-05-18T08:56:47.550Z,3.17
2023-05-18T09:01:52.945Z,3.10
2023-05-18T09:07:03.328Z,3.22
2023-05-18T09:12:09.836Z,3.00
2023-05-18T09:17:15.103Z,3.30
2023-05-18T09:22:23.232Z,3.08
2023-05-18T09:27:28.487Z,2.92
2023-05-18T09:32:38.664Z,3.38
2023-05-18T09:37:47.485Z,3.15
2023-05-18T09:42:52.884Z,3.70
2023-05-18T09:48:00.963Z,3.33
2023-05-18T09:53:10.747Z,4.13
2023-05-18T09:58:16.071Z,5.25
2023-05-18T10:03:22.547Z,4.22
2023-05-18T10:08:30.596Z,3.65
2023-05-18T10:13:36.997Z,4.80
2023-05-18T10:18:45.620Z,4.55
2023-05-18T10:23:54.284Z,4.30
2023-05-18T10:29:00.345Z,4.40
2023-05-18T10:34:06.148Z,5.10
2023-05-18T10:39:15.071Z,4.72
2023-05-18T10:44:20.430Z,4.78
2023-05-18T10:49:26.447Z,4.50
2023-05-18T10:54:34.382Z,4.03
2023-05-18T10:59:42.865Z,4.18
2023-05-18T11:04:50.672Z,4.23
2023-05-18T11:10:00.377Z,4.50
2023-05-18T11:15:05.707Z,3.75
2023-05-18T11:20:20.752Z,4.53
2023-05-18T11:25:46.018Z,3.75
2023-05-18T11:30:53.215Z,3.25
2023-05-18T11:36:07.694Z,5.57
2023-05-18T11:41:30.355Z,10.65
2023-05-18T11:46:37.458Z,8.45
2023-05-18T11:52:01.546Z,4.32
2023-05-18T11:57:11.042Z,3.63
2023-05-18T12:02:21.814Z,3.78
2023-05-18T12:07:28.556Z,4.60
2023-05-18T12:12:36.879Z,4.32
2023-05-18T12:17:43.095Z,4.63
2023-05-18T12:22:50.553Z,3.65
2023-05-18T12:27:58.316Z,3.80
2023-05-18T12:33:07.364Z,3.20
2023-05-18T12:38:12.656Z,3.33
2023-05-18T12:43:20.627Z,3.20
2023-05-18T12:48:26.916Z,2.63
2023-05-18T12:53:44.611Z,2.65
2023-05-18T12:59:08.482Z,2.83
2023-05-18T13:04:15.271Z,3.20
2023-05-18T13:09:20.983Z,3.55
2023-05-18T13:14:30.780Z,2.50
2023-05-18T13:19:38.005Z,2.70
2023-05-18T13:24:43.966Z,2.40
2023-05-18T13:29:51.671Z,2.83
2023-05-18T13:34:56.809Z,2.42
2023-05-18T13:40:02.176Z,2.60
2023-05-18T13:45:13.200Z,2.63
2023-05-18T13:50:19.902Z,2.92
2023-05-18T13:55:25.379Z,2.63
2023-05-18T14:00:34.085Z,2.10
2023-05-18T14:05:39.928Z,2.80
2023-05-18T14:10:45.435Z,2.72
2023-05-18T14:15:53.361Z,2.47
2023-05-18T14:21:02.444Z,3.20
2023-05-18T14:26:07.611Z,2.90
2023-05-18T14:31:15.567Z,2.78
2023-05-18T14:36:22.182Z,2.88
2023-05-18T14:41:27.574Z,3.03
2023-05-18T14:46:35.457Z,3.00
2023-05-18T14:51:41.022Z,2.28
2023-05-18T14:56:46.757Z,2.80
2023-05-18T15:01:54.598Z,2.40
2023-05-18T15:06:59.907Z,2.50
2023-05-18T15:12:05.115Z,2.83
2023-05-18T15:17:13.913Z,2.75
2023-05-18T15:22:19.140Z,3.60
2023-05-18T15:27:24.362Z,2.95
2023-05-18T15:32:32.300Z,3.13
2023-05-18T15:37:37.654Z,14.18
2023-05-18T15:42:42.814Z,14.00
2023-05-18T15:47:50.716Z,3.50
2023-05-18T15:52:56.066Z,3.28
2023-05-18T15:58:01.209Z,3.92
2023-05-18T16:03:09.242Z,4.80
2023-05-18T16:08:15.997Z,3.78
2023-05-18T16:13:24.000Z,5.35
2023-05-18T16:18:31.844Z,4.50
2023-05-18T16:23:40.718Z,3.58
2023-05-18T16:28:46.785Z,3.17
2023-05-18T16:33:54.637Z,3.70
2023-05-18T16:39:00.122Z,4.55
2023-05-18T16:44:05.557Z,3.92
2023-05-18T16:49:13.613Z,2.65
2023-05-18T16:54:18.985Z,2.67
2023-05-18T16:59:24.799Z,2.55
2023-05-18T17:04:32.789Z,2.50
2023-05-18T17:09:40.269Z,3.33
2023-05-18T17:14:45.475Z,2.67
2023-05-18T17:19:53.251Z,3.63
2023-05-18T17:24:58.902Z,3.40
2023-05-18T17:30:04.039Z,3.88
2023-05-18T17:35:14.309Z,3.15
2023-05-18T17:40:19.813Z,4.13
2023-05-18T17:45:24.988Z,3.05
2023-05-18T17:50:33.160Z,3.33
2023-05-18T17:55:38.607Z,3.72
2023-05-18T18:00:45.738Z,3.35
2023-05-18T18:05:53.545Z,4.82
2023-05-18T18:10:58.773Z,5.00
2023-05-18T18:16:04.041Z,5.03
2023-05-18T18:21:12.086Z,4.93
2023-05-18T18:26:17.409Z,5.47
2023-05-18T18:31:22.629Z,6.28
2023-05-18T18:36:30.580Z,4.80
2023-05-18T18:41:35.860Z,4.80
2023-05-18T18:46:41.112Z,4.72
2023-05-18T18:51:49.261Z,5.88
2023-05-18T18:56:54.920Z,4.88
2023-05-18T19:02:00.185Z,4.45
2023-05-18T19:07:08.335Z,4.93
2023-05-18T19:12:13.682Z,5.97
2023-05-18T19:17:19.030Z,6.78
2023-05-18T19:22:26.782Z,7.50
2023-05-18T19:27:32.114Z,6.20
2023-05-18T19:32:37.251Z,5.93
2023-05-18T19:37:45.053Z,6.40
2023-05-18T19:42:50.539Z,6.38
2023-05-18T19:47:56.100Z,6.82
2023-05-18T19:53:03.932Z,7.40
2023-05-18T19:58:09.117Z,6.85
2023-05-18T20:03:14.736Z,6.82
2023-05-18T20:08:22.654Z,5.80
2023-05-18T20:13:27.832Z,6.10
2023-05-18T20:18:35.466Z,6.32
2023-05-18T20:23:43.378Z,6.03
2023-05-18T20:28:48.483Z,6.20
2023-05-18T20:33:57.264Z,6.10
2023-05-18T20:39:05.718Z,7.03
2023-05-18T20:44:11.792Z,6.65
2023-05-18T20:49:16.917Z,7.30
2023-05-18T20:54:24.802Z,7.60
2023-05-18T20:59:30.070Z,7.47
2023-05-18T21:04:35.282Z,9.38
2023-05-18T21:09:42.988Z,8.27
2023-05-18T21:14:48.267Z,8.82
2023-05-18T21:19:53.656Z,8.95
2023-05-18T21:25:01.471Z,9.27
2023-05-18T21:30:07.087Z,9.00
2023-05-18T21:35:12.704Z,9.65
2023-05-18T21:40:20.527Z,8.98
2023-05-18T21:45:25.901Z,9.82
2023-05-18T21:50:35.386Z,10.63
2023-05-18T21:55:43.473Z,10.95
2023-05-18T22:00:48.688Z,10.27
2023-05-18T22:05:53.887Z,10.73
2023-05-18T22:11:01.771Z,10.05
2023-05-18T22:16:07.184Z,11.32
2023-05-18T22:21:12.617Z,9.75
2023-05-18T22:26:20.465Z,11.77
2023-05-18T22:31:25.931Z,10.77
2023-05-18T22:36:31.102Z,11.75
2023-05-18T22:41:38.792Z,11.23
2023-05-18T22:46:43.964Z,11.80
2023-05-18T22:51:50.251Z,10.95
2023-05-18T22:56:59.707Z,10.73
2023-05-18T23:02:04.966Z,11.45
2023-05-18T23:07:11.819Z,12.70
2023-05-18T23:12:20.657Z,11.13
2023-05-18T23:17:26.944Z,11.25
2023-05-18T23:22:32.345Z,11.45
2023-05-18T23:27:40.186Z,11.23
2023-05-18T23:32:47.192Z,11.85
2023-05-18T23:37:53.915Z,11.82
2023-05-18T23:43:02.540Z,11.60
2023-05-18T23:48:08.862Z,12.52
2023-05-18T23:53:15.611Z,11.73
2023-05-18T23:58:24.756Z,12.25
